Terminal Aerodrome Forecast
Issued by NWS Cleveland, OH

Home | Current Version | Previous Version | Graphics & Text | Print | Product List | Glossary Off
Versions: 1 2 3 4 5 6 7 8 9 10 11 12 13 14 15 16 17 18 19 20 21 22 23 24 25

000
FTUS41 KCLE 271500 AAB
TAFCAK
TAF AMD
KCAK 271504Z 2715/2812 22006KT 4SM BR BKN015
     FM271700 22008KT P6SM VCSH BKN025
     FM272000 24008KT P6SM VCTS BKN035CB OVC100
      TEMPO 2721/2801 2SM TSRA BR OVC015CB
     FM280500 26006KT 6SM BR VCSH OVC035=

USA.gov is the U.S. government's official web portal to all federal, state and local government web resources and services.